Terminal Aerodrome Forecast
Issued by NWS Sioux Falls, SD

Home | Current Version | Previous Version | Graphics & Text | Print | Product List | Glossary Off
Versions: 1 2 3 4 5 6 7 8 9 10 11 12 13 14 15 16 17 18 19 20 21 22 23 24 25 26 27 28

000
FTUS43 KFSD 281120
TAFSUX
TAF
KSUX 281120Z 2812/2912 05011KT P6SM OVC080
     FM281500 05012KT P6SM VCSH OVC050
      TEMPO 2816/2817 -SHRA OVC025
     FM281700 06016G23KT 4SM -RA OVC015
     FM290000 03010KT P6SM OVC025
     FM290200 02009KT P6SM OVC050
     FM290900 03010KT P6SM OVC100=

USA.gov is the U.S. government's official web portal to all federal, state and local government web resources and services.